Time;durP1;ratioP1;P1;durP2;ratioP2;P2;SDS_P1;SDS_P2;PMS_P1;PMS_P2;Temp;Humidity;BMP_temperature;BMP_pressure;BME280_temperature;BME280_humidity;BME280_pressure;Samples;Min_cycle;Max_cycle;Signal;HPM_P1;HPM_P2
2023/03/16 00:01:16;;;;;;;5.50;4.00;;;3.30;99.90;;;;;;5077673;28;20365;-76
2023/03/16 00:03:42;;;;;;;6.30;4.20;;;3.20;99.90;;;;;;5088552;28;20024;-75
2023/03/16 00:06:08;;;;;;;9.47;4.40;;;3.20;99.90;;;;;;5077066;28;20417;-74
2023/03/16 00:08:34;;;;;;;6.57;3.93;;;3.00;99.90;;;;;;5083902;28;20028;-75
2023/03/16 00:11:01;;;;;;;5.60;3.70;;;3.00;99.90;;;;;;5082967;28;20353;-74
2023/03/16 00:13:28;;;;;;;8.73;4.23;;;3.00;99.90;;;;;;5077120;28;20016;-74
2023/03/16 00:15:56;;;;;;;5.83;3.70;;;3.00;99.90;;;;;;5086791;28;20024;-75
2023/03/16 00:18:26;;;;;;;6.70;4.03;;;3.00;99.90;;;;;;5078727;28;20028;-75
2023/03/16 00:20:54;;;;;;;7.83;4.10;;;2.90;99.90;;;;;;5080968;28;20458;-78
2023/03/16 00:23:25;;;;;;;8.37;3.97;;;2.90;99.90;;;;;;5082335;28;20031;-75
2023/03/16 00:25:55;;;;;;;5.22;3.78;;;2.90;99.90;;;;;;5085578;28;20468;-74
2023/03/16 00:28:25;;;;;;;7.27;3.50;;;3.00;99.90;;;;;;5081927;28;20024;-75
2023/03/16 00:30:52;;;;;;;5.00;3.53;;;3.00;99.90;;;;;;5084695;28;20138;-74
2023/03/16 00:33:17;;;;;;;5.57;3.80;;;3.10;99.90;;;;;;5092300;28;20356;-75
2023/03/16 00:35:48;;;;;;;7.10;3.80;;;3.00;99.90;;;;;;5091717;28;20020;-73
2023/03/16 00:38:17;;;;;;;7.17;3.70;;;3.10;99.90;;;;;;5093283;28;20046;-73
2023/03/16 00:40:43;;;;;;;7.70;4.23;;;3.10;99.90;;;;;;5092847;28;20074;-73
2023/03/16 00:43:09;;;;;;;6.40;3.60;;;3.10;99.90;;;;;;5091928;28;20024;-73
2023/03/16 00:45:35;;;;;;;5.83;3.80;;;3.10;99.90;;;;;;5052897;28;20378;-73
2023/03/16 00:48:00;;;;;;;6.10;3.90;;;3.20;99.90;;;;;;5068172;28;20025;-73
2023/03/16 00:50:26;;;;;;;6.30;3.67;;;3.10;99.90;;;;;;5068419;28;20373;-73
2023/03/16 00:52:53;;;;;;;8.27;3.97;;;3.10;99.90;;;;;;5067942;28;20434;-73
2023/03/16 00:55:19;;;;;;;6.53;3.87;;;3.20;99.90;;;;;;5052903;28;20044;-73
2023/03/16 00:57:45;;;;;;;7.27;4.47;;;3.10;99.90;;;;;;5051534;28;20021;-72
2023/03/16 01:00:15;;;;;;;6.93;4.57;;;3.20;99.90;;;;;;5051805;28;20029;-73
2023/03/16 01:02:44;;;;;;;7.17;4.27;;;3.10;99.90;;;;;;5051190;28;20465;-73
2023/03/16 01:05:10;;;;;;;8.10;4.00;;;3.10;99.90;;;;;;5052942;28;20021;-73
2023/03/16 01:07:35;;;;;;;6.60;3.70;;;3.10;99.90;;;;;;5051094;28;20075;-73
2023/03/16 01:10:02;;;;;;;7.93;4.33;;;3.10;99.90;;;;;;5052667;28;20425;-73
2023/03/16 01:12:27;;;;;;;9.03;5.07;;;3.10;99.90;;;;;;5051554;28;20396;-73
2023/03/16 01:14:54;;;;;;;7.47;4.60;;;3.00;99.90;;;;;;5067503;28;20058;-73
2023/03/16 01:17:21;;;;;;;8.63;3.90;;;3.00;99.90;;;;;;5051407;28;20453;-73
2023/03/16 01:19:47;;;;;;;7.23;4.63;;;3.00;99.90;;;;;;5050695;28;20033;-73
2023/03/16 01:22:16;;;;;;;10.73;4.57;;;3.00;99.90;;;;;;5052462;28;20044;-72
2023/03/16 01:24:44;;;;;;;9.80;4.37;;;3.00;99.90;;;;;;5052166;28;20021;-73
2023/03/16 01:27:10;;;;;;;7.27;4.17;;;3.00;99.90;;;;;;5052045;28;20484;-73
2023/03/16 01:29:36;;;;;;;7.33;4.37;;;3.00;99.90;;;;;;5071389;28;20032;-73
2023/03/16 01:32:03;;;;;;;10.73;4.67;;;2.90;99.90;;;;;;5071695;28;20373;-73
2023/03/16 01:34:29;;;;;;;8.97;5.17;;;2.80;99.90;;;;;;5054977;28;20159;-73
2023/03/16 01:36:55;;;;;;;7.40;4.60;;;2.80;99.90;;;;;;5054292;28;20484;-73
2023/03/16 01:39:21;;;;;;;6.57;4.17;;;2.70;99.90;;;;;;5056118;28;20052;-72
2023/03/16 01:41:46;;;;;;;9.87;4.80;;;2.70;99.90;;;;;;5054338;28;20118;-73
2023/03/16 01:44:19;;;;;;;8.13;4.97;;;2.70;99.90;;;;;;5091245;28;20024;-72
2023/03/16 01:46:44;;;;;;;7.10;4.23;;;2.70;99.90;;;;;;5074225;28;20338;-72
2023/03/16 01:49:33;;;;;;;7.60;4.40;;;2.70;99.90;;;;;;5074596;28;20039;-73
2023/03/16 01:52:03;;;;;;;6.57;4.33;;;2.70;99.90;;;;;;5076234;28;20020;-73
2023/03/16 01:54:36;;;;;;;8.93;4.63;;;2.70;99.90;;;;;;5075857;28;20021;-72
2023/03/16 01:57:15;;;;;;;7.47;4.60;;;2.60;99.90;;;;;;5074425;28;20458;-72
2023/03/16 01:59:47;;;;;;;6.70;4.50;;;2.60;99.90;;;;;;5075378;28;20103;-72
2023/03/16 02:02:17;;;;;;;7.97;4.17;;;2.70;99.90;;;;;;5074623;28;20021;-72
2023/03/16 02:05:01;;;;;;;8.00;4.40;;;2.70;99.90;;;;;;5073599;28;20023;-73
2023/03/16 02:07:30;;;;;;;6.10;4.30;;;2.60;99.90;;;;;;5075529;28;20048;-72
2023/03/16 02:09:59;;;;;;;8.37;4.70;;;2.60;99.90;;;;;;5073746;28;20033;-73
2023/03/16 02:12:25;;;;;;;7.00;4.43;;;2.60;99.90;;;;;;5073931;28;20103;-72
2023/03/16 02:14:52;;;;;;;9.17;4.43;;;2.60;99.90;;;;;;5075014;28;20024;-73
2023/03/16 02:17:21;;;;;;;8.33;4.70;;;2.50;99.90;;;;;;5075283;28;20028;-72
2023/03/16 02:20:08;;;;;;;7.73;4.60;;;2.50;99.90;;;;;;5073585;28;20421;-72
2023/03/16 02:22:38;;;;;;;8.93;4.70;;;2.50;99.90;;;;;;5074310;28;20028;-72
2023/03/16 02:25:04;;;;;;;7.97;5.07;;;2.50;99.90;;;;;;5074140;28;20089;-72
2023/03/16 02:28:03;;;;;;;8.00;4.80;;;2.40;99.90;;;;;;5075055;28;20087;-73
2023/03/16 02:30:30;;;;;;;7.10;4.07;;;2.40;99.90;;;;;;5075034;28;20134;-72
2023/03/16 02:32:56;;;;;;;7.37;4.33;;;2.40;99.90;;;;;;5074756;28;20321;-73
2023/03/16 02:35:21;;;;;;;6.63;4.30;;;2.50;99.90;;;;;;5075101;28;20044;-72
2023/03/16 02:37:47;;;;;;;7.37;4.40;;;2.40;99.90;;;;;;5074699;28;20045;-72
2023/03/16 02:40:25;;;;;;;9.87;4.37;;;2.50;99.90;;;;;;5072944;28;20119;-72
2023/03/16 02:43:03;;;;;;;7.57;4.63;;;2.50;99.90;;;;;;5073332;28;20021;-72
2023/03/16 02:45:52;;;;;;;7.47;4.57;;;2.50;99.90;;;;;;5074634;28;20407;-72
2023/03/16 02:48:34;;;;;;;9.07;4.90;;;2.50;99.90;;;;;;5073492;28;20020;-73
2023/03/16 02:50:59;;;;;;;5.70;3.13;;;2.40;99.90;;;;;;5073122;28;20024;-72
2023/03/16 02:53:25;;;;;;;9.03;5.20;;;2.40;99.90;;;;;;5073558;28;20381;-73
2023/03/16 02:55:50;;;;;;;9.43;5.63;;;2.30;99.90;;;;;;5074352;28;20036;-72
2023/03/16 02:58:16;;;;;;;7.23;4.30;;;2.30;99.90;;;;;;5073488;28;20338;-72
2023/03/16 03:00:44;;;;;;;7.70;4.73;;;2.40;99.90;;;;;;5072914;28;20029;-72
2023/03/16 03:03:10;;;;;;;7.00;4.87;;;2.40;99.90;;;;;;5074677;28;20017;-72
2023/03/16 03:05:36;;;;;;;8.10;4.57;;;2.40;99.90;;;;;;5074606;28;20073;-75
2023/03/16 03:08:03;;;;;;;7.63;4.80;;;2.40;99.90;;;;;;5072702;28;20020;-72
2023/03/16 03:10:29;;;;;;;9.23;4.77;;;2.40;99.90;;;;;;5073199;28;20083;-72
2023/03/16 03:12:56;;;;;;;8.77;5.00;;;2.40;99.90;;;;;;5072766;28;20025;-72
2023/03/16 03:15:22;;;;;;;9.27;5.70;;;2.40;99.90;;;;;;5073350;28;20052;-73
2023/03/16 03:17:47;;;;;;;7.53;4.90;;;2.40;99.90;;;;;;5072462;28;20067;-72
2023/03/16 03:20:15;;;;;;;9.67;5.27;;;2.40;99.90;;;;;;5072982;28;20036;-72
2023/03/16 03:22:46;;;;;;;10.23;5.10;;;2.40;99.90;;;;;;5072522;28;20087;-73
2023/03/16 03:25:14;;;;;;;9.57;4.97;;;2.40;99.90;;;;;;5073096;28;20417;-72
2023/03/16 03:27:41;;;;;;;9.53;5.33;;;2.40;99.90;;;;;;5072373;28;20085;-77
2023/03/16 03:30:13;;;;;;;8.87;5.10;;;2.40;99.90;;;;;;5072924;28;20450;-73
2023/03/16 03:32:39;;;;;;;7.47;4.82;;;2.40;99.90;;;;;;5072918;28;20518;-71
2023/03/16 03:35:05;;;;;;;8.43;4.93;;;2.40;99.90;;;;;;5074019;28;20349;-72
2023/03/16 03:37:31;;;;;;;8.17;4.90;;;2.40;99.90;;;;;;5073520;28;20040;-72
2023/03/16 03:39:57;;;;;;;9.10;5.17;;;2.40;99.90;;;;;;5073264;28;20032;-72
2023/03/16 03:42:22;;;;;;;8.17;4.30;;;2.40;99.90;;;;;;5072556;28;20016;-72
2023/03/16 03:44:50;;;;;;;9.13;4.87;;;2.30;99.90;;;;;;5073318;28;20028;-73
2023/03/16 03:47:16;;;;;;;9.10;4.60;;;2.30;99.90;;;;;;5072277;28;20457;-72
2023/03/16 03:49:41;;;;;;;8.33;5.13;;;2.40;99.90;;;;;;5071639;28;20032;-74
2023/03/16 03:52:07;;;;;;;7.77;4.90;;;2.40;99.90;;;;;;5073616;28;20067;-72
2023/03/16 03:54:33;;;;;;;7.50;4.30;;;2.30;99.90;;;;;;5072246;28;20094;-72
2023/03/16 03:56:58;;;;;;;10.37;4.20;;;2.30;99.90;;;;;;5071733;28;20463;-73
2023/03/16 03:59:24;;;;;;;8.80;4.70;;;2.30;99.90;;;;;;5073584;28;20469;-72
2023/03/16 04:01:52;;;;;;;8.03;4.20;;;2.30;99.90;;;;;;5072962;28;20472;-73
2023/03/16 04:04:18;;;;;;;6.90;4.20;;;2.40;99.90;;;;;;5072194;28;20115;-73
2023/03/16 04:06:44;;;;;;;7.63;4.60;;;2.30;99.90;;;;;;5071583;28;20153;-74
2023/03/16 04:09:10;;;;;;;5.97;4.10;;;2.30;99.90;;;;;;5071848;28;20512;-73
2023/03/16 04:11:36;;;;;;;8.20;4.80;;;2.30;99.90;;;;;;5071871;28;20025;-73
2023/03/16 04:14:02;;;;;;;7.33;4.50;;;2.20;99.90;;;;;;5071351;28;20028;-73
2023/03/16 04:16:28;;;;;;;7.10;4.70;;;2.20;99.90;;;;;;5073274;28;20028;-74
2023/03/16 04:18:55;;;;;;;7.07;4.33;;;2.30;99.90;;;;;;5072357;28;20029;-73
2023/03/16 04:21:21;;;;;;;10.33;4.80;;;2.20;99.90;;;;;;5073111;28;20025;-73
2023/03/16 04:23:47;;;;;;;9.23;4.70;;;2.20;99.90;;;;;;5071398;28;20017;-74
2023/03/16 04:26:13;;;;;;;7.53;4.73;;;2.20;99.90;;;;;;5071759;28;20230;-74
2023/03/16 04:28:39;;;;;;;9.73;4.97;;;2.20;99.90;;;;;;5073024;28;20099;-73
2023/03/16 04:31:09;;;;;;;7.13;4.30;;;2.20;99.90;;;;;;5070972;28;20373;-74
2023/03/16 04:33:36;;;;;;;8.73;5.07;;;2.20;99.90;;;;;;5072973;28;20113;-74
2023/03/16 04:36:03;;;;;;;7.40;4.27;;;2.20;99.90;;;;;;5072034;28;20020;-73
2023/03/16 04:38:29;;;;;;;7.73;4.77;;;2.20;99.90;;;;;;5071767;28;20055;-73
2023/03/16 04:40:55;;;;;;;8.80;4.80;;;2.20;99.90;;;;;;5072479;28;20031;-74
2023/03/16 04:43:21;;;;;;;7.40;4.17;;;2.20;99.90;;;;;;5073195;28;20024;-73
2023/03/16 04:45:47;;;;;;;7.47;4.67;;;2.20;99.90;;;;;;5070978;28;20031;-74
2023/03/16 04:48:13;;;;;;;6.97;4.27;;;2.20;99.90;;;;;;5071314;28;20372;-74
2023/03/16 04:50:39;;;;;;;9.43;4.80;;;2.20;99.90;;;;;;5071639;28;20028;-73
2023/03/16 04:53:05;;;;;;;7.53;4.37;;;2.20;99.90;;;;;;5071041;28;20017;-73
2023/03/16 04:55:30;;;;;;;9.47;4.93;;;2.10;99.90;;;;;;5072758;28;20027;-74
2023/03/16 04:57:57;;;;;;;8.83;4.90;;;2.00;99.90;;;;;;5070976;28;20021;-74
2023/03/16 05:00:23;;;;;;;8.00;4.27;;;2.10;99.90;;;;;;5072265;28;20085;-74
2023/03/16 05:02:50;;;;;;;6.77;4.40;;;2.10;99.90;;;;;;5070386;28;20078;-75
2023/03/16 05:05:17;;;;;;;8.77;5.33;;;2.20;99.90;;;;;;5071338;28;20081;-74
2023/03/16 05:07:42;;;;;;;10.23;5.43;;;2.30;99.90;;;;;;5071397;28;20025;-73
2023/03/16 05:10:13;;;;;;;9.40;5.77;;;2.30;99.90;;;;;;5070733;28;20480;-73
2023/03/16 05:12:39;;;;;;;12.30;5.53;;;2.30;99.90;;;;;;5071402;28;20021;-74
2023/03/16 05:15:06;;;;;;;10.60;5.43;;;2.30;99.90;;;;;;5072062;28;20441;-74
2023/03/16 05:17:31;;;;;;;10.23;6.07;;;2.30;99.90;;;;;;5072455;28;20028;-73
2023/03/16 05:19:57;;;;;;;9.30;5.57;;;2.30;99.90;;;;;;5070709;28;20376;-74
2023/03/16 05:22:23;;;;;;;12.53;6.30;;;2.30;99.90;;;;;;5071342;28;20020;-73
2023/03/16 05:24:49;;;;;;;10.63;6.00;;;2.20;99.90;;;;;;5070808;28;20020;-74
2023/03/16 05:27:14;;;;;;;10.97;6.20;;;2.20;99.90;;;;;;5071320;28;20020;-73
2023/03/16 05:29:44;;;;;;;11.83;6.27;;;2.20;99.90;;;;;;5072318;28;20031;-74
2023/03/16 05:32:10;;;;;;;9.60;5.60;;;2.30;99.90;;;;;;5072071;28;20134;-74
2023/03/16 05:34:36;;;;;;;8.53;6.10;;;2.20;99.90;;;;;;5072320;28;20031;-74
2023/03/16 05:37:02;;;;;;;10.47;6.43;;;2.20;99.90;;;;;;5070248;28;20052;-73
2023/03/16 05:39:29;;;;;;;12.87;6.70;;;2.20;99.90;;;;;;5072381;28;20025;-73
2023/03/16 05:41:56;;;;;;;12.00;6.43;;;2.10;99.90;;;;;;5074507;28;20017;-73
2023/03/16 05:44:22;;;;;;;15.30;6.63;;;2.10;99.90;;;;;;5070920;28;20031;-74
2023/03/16 05:46:47;;;;;;;11.33;6.00;;;2.10;99.90;;;;;;5070210;28;20020;-90
2023/03/16 05:49:13;;;;;;;9.67;5.70;;;2.10;99.90;;;;;;5070934;28;20032;-74
2023/03/16 05:51:38;;;;;;;10.17;6.07;;;2.10;99.90;;;;;;5083793;28;20036;-73
2023/03/16 05:54:04;;;;;;;10.10;5.97;;;2.10;99.90;;;;;;5092124;28;20039;-74
2023/03/16 05:56:30;;;;;;;12.90;7.07;;;2.10;99.90;;;;;;5090752;28;20058;-74
2023/03/16 05:58:55;;;;;;;12.60;6.40;;;2.00;99.90;;;;;;5091619;28;20028;-74
2023/03/16 06:01:22;;;;;;;12.73;6.90;;;2.00;99.90;;;;;;5080443;28;20526;-73
2023/03/16 06:03:50;;;;;;;11.03;6.77;;;2.00;99.90;;;;;;5070619;28;20024;-92
2023/03/16 06:06:17;;;;;;;12.53;7.00;;;2.00;99.90;;;;;;5071819;28;20029;-74
2023/03/16 06:08:42;;;;;;;12.77;7.20;;;1.90;99.90;;;;;;5070813;28;20457;-74
2023/03/16 06:11:10;;;;;;;12.13;6.73;;;2.00;99.90;;;;;;5074726;28;20281;-74
2023/03/16 06:13:36;;;;;;;10.40;6.40;;;2.10;99.90;;;;;;5085029;28;20091;-74
2023/03/16 06:16:02;;;;;;;11.87;6.93;;;2.00;99.90;;;;;;5081644;28;20548;-74
2023/03/16 06:18:28;;;;;;;13.10;7.00;;;2.10;99.90;;;;;;5075627;28;20039;-74
2023/03/16 06:20:54;;;;;;;11.00;7.40;;;2.10;99.90;;;;;;5074052;28;20021;-74
2023/03/16 06:23:20;;;;;;;13.07;6.97;;;2.00;99.90;;;;;;5074363;28;20020;-74
2023/03/16 06:25:49;;;;;;;13.87;7.13;;;2.10;99.90;;;;;;5074120;28;20086;-74
2023/03/16 06:28:15;;;;;;;15.87;7.67;;;2.00;99.90;;;;;;5073942;28;20020;-74
2023/03/16 06:30:41;;;;;;;14.40;8.00;;;2.10;99.90;;;;;;5074095;28;20051;-74
2023/03/16 06:33:07;;;;;;;13.73;8.07;;;2.10;99.90;;;;;;5074387;28;20028;-73
2023/03/16 06:35:33;;;;;;;14.27;7.93;;;2.20;99.90;;;;;;5086797;28;20472;-74
2023/03/16 06:37:59;;;;;;;15.03;8.43;;;2.20;99.90;;;;;;5094624;28;20059;-74
2023/03/16 06:40:24;;;;;;;16.73;8.43;;;2.20;99.90;;;;;;5093995;28;20024;-74
2023/03/16 06:42:50;;;;;;;13.43;7.77;;;2.30;99.90;;;;;;5093897;28;20034;-90
2023/03/16 06:45:16;;;;;;;13.20;7.40;;;2.30;99.90;;;;;;5093967;28;20024;-73
2023/03/16 06:47:43;;;;;;;12.17;7.50;;;2.40;99.90;;;;;;5094743;28;20082;-73
2023/03/16 06:50:10;;;;;;;11.77;6.97;;;2.40;99.90;;;;;;5093256;28;20039;-74
2023/03/16 06:52:36;;;;;;;11.77;6.67;;;2.40;99.90;;;;;;5089908;28;20108;-74
2023/03/16 06:55:02;;;;;;;12.17;6.93;;;2.40;99.90;;;;;;5073085;28;20056;-74
2023/03/16 06:57:27;;;;;;;10.00;6.53;;;2.50;99.90;;;;;;5074801;28;20031;-73
2023/03/16 06:59:53;;;;;;;10.43;6.10;;;2.50;99.90;;;;;;5072985;28;20036;-74
2023/03/16 07:02:19;;;;;;;10.17;6.70;;;2.50;99.90;;;;;;5074992;28;20036;-74
2023/03/16 07:04:44;;;;;;;11.53;7.10;;;2.60;99.90;;;;;;5065534;28;20020;-74
2023/03/16 07:07:10;;;;;;;10.33;5.87;;;2.60;99.90;;;;;;5069888;28;20065;-74
2023/03/16 07:09:37;;;;;;;9.77;5.90;;;2.60;99.90;;;;;;5077599;28;20020;-74
2023/03/16 07:12:03;;;;;;;11.20;6.67;;;2.70;99.90;;;;;;5091570;28;20110;-74
2023/03/16 07:14:29;;;;;;;12.53;6.27;;;2.70;99.90;;;;;;5091802;28;20043;-74
2023/03/16 07:16:55;;;;;;;11.50;6.47;;;2.70;99.90;;;;;;5091536;28;20027;-74
2023/03/16 07:19:21;;;;;;;9.77;6.63;;;2.80;99.90;;;;;;5089028;28;20032;-74
2023/03/16 07:21:47;;;;;;;12.63;6.60;;;2.80;99.90;;;;;;5091830;28;20441;-74
2023/03/16 07:24:14;;;;;;;14.57;7.30;;;2.90;99.90;;;;;;5088796;28;20086;-74
2023/03/16 07:26:40;;;;;;;14.37;7.93;;;2.80;99.90;;;;;;5089996;28;20016;-73
2023/03/16 07:29:06;;;;;;;12.47;7.37;;;2.80;99.90;;;;;;5090681;28;20074;-74
2023/03/16 07:31:33;;;;;;;14.17;7.60;;;2.90;99.90;;;;;;5086951;28;20012;-74
2023/03/16 07:33:59;;;;;;;13.10;7.33;;;2.90;99.90;;;;;;5086201;28;20059;-79
2023/03/16 07:36:25;;;;;;;12.67;6.73;;;3.00;99.90;;;;;;5090233;28;20072;-73
2023/03/16 07:38:51;;;;;;;12.70;6.93;;;3.10;99.90;;;;;;5085270;28;20028;-74
2023/03/16 07:41:17;;;;;;;12.37;7.07;;;3.10;99.90;;;;;;5072149;28;20113;-74
2023/03/16 07:43:45;;;;;;;11.80;6.73;;;3.20;99.90;;;;;;5085481;28;20111;-75
2023/03/16 07:46:12;;;;;;;10.37;6.60;;;3.20;99.90;;;;;;5090905;28;20020;-74
2023/03/16 07:48:39;;;;;;;14.27;6.20;;;3.30;99.90;;;;;;5091793;28;20028;-74
2023/03/16 07:51:05;;;;;;;12.47;6.63;;;3.30;99.90;;;;;;5075268;28;20024;-74
2023/03/16 07:53:30;;;;;;;13.27;6.60;;;3.40;99.90;;;;;;5060084;28;20347;-74
2023/03/16 07:55:56;;;;;;;16.87;7.37;;;3.40;99.90;;;;;;5066888;28;20024;-74
2023/03/16 07:58:22;;;;;;;10.73;6.23;;;3.50;99.90;;;;;;5053835;28;20419;-74
2023/03/16 08:00:47;;;;;;;10.13;6.27;;;3.50;99.90;;;;;;5060538;28;20027;-74
2023/03/16 08:03:13;;;;;;;16.23;6.07;;;3.60;99.90;;;;;;5065221;28;20029;-74
2023/03/16 08:05:38;;;;;;;10.13;5.63;;;3.70;99.90;;;;;;5053233;28;20024;-74
2023/03/16 08:08:04;;;;;;;11.53;6.13;;;3.70;99.90;;;;;;5086168;28;20024;-74
2023/03/16 08:10:30;;;;;;;7.27;4.87;;;3.70;99.90;;;;;;5053663;28;20024;-74
2023/03/16 08:12:56;;;;;;;9.13;5.33;;;3.80;99.90;;;;;;5066956;28;20134;-74
2023/03/16 08:15:22;;;;;;;8.57;5.30;;;3.80;99.90;;;;;;5074120;28;20080;-73
2023/03/16 08:17:47;;;;;;;9.33;5.33;;;3.90;99.90;;;;;;5072611;28;20449;-74
2023/03/16 08:20:14;;;;;;;8.80;5.40;;;4.00;99.90;;;;;;5073601;28;20391;-74
2023/03/16 08:22:41;;;;;;;8.70;4.63;;;4.00;99.90;;;;;;5069791;28;20016;-74
2023/03/16 08:25:09;;;;;;;5.83;3.63;;;4.20;99.90;;;;;;5084409;28;20021;-74
2023/03/16 08:27:37;;;;;;;6.63;3.73;;;4.20;99.90;;;;;;5083400;28;20022;-74
2023/03/16 08:30:10;;;;;;;20.50;10.00;;;4.20;99.90;;;;;;5062362;28;20381;-74
2023/03/16 08:32:36;;;;;;;5.80;3.90;;;4.30;99.90;;;;;;5081540;28;20115;-74
2023/03/16 08:35:02;;;;;;;7.40;3.30;;;4.40;99.90;;;;;;5082180;28;20436;-74
2023/03/16 08:37:28;;;;;;;7.37;4.00;;;4.40;99.90;;;;;;5078707;28;20044;-73
2023/03/16 08:39:53;;;;;;;4.63;3.00;;;4.40;99.90;;;;;;5080363;28;20160;-74
2023/03/16 08:42:19;;;;;;;5.67;3.23;;;4.50;99.90;;;;;;5082692;28;20023;-74
2023/03/16 08:44:46;;;;;;;4.47;2.90;;;4.50;99.90;;;;;;5083048;28;20032;-74
2023/03/16 08:47:13;;;;;;;4.53;3.20;;;4.60;99.90;;;;;;5083132;28;20020;-72
2023/03/16 08:49:40;;;;;;;6.53;3.13;;;4.70;99.90;;;;;;5084433;28;20478;-72
2023/03/16 08:52:09;;;;;;;4.80;3.10;;;4.70;99.90;;;;;;5071362;28;20028;-71
2023/03/16 08:54:35;;;;;;;7.83;3.70;;;4.80;99.90;;;;;;5065904;28;20012;-73
2023/03/16 08:57:01;;;;;;;6.03;3.27;;;4.90;99.90;;;;;;5062956;28;20025;-75
2023/03/16 08:59:27;;;;;;;6.73;3.60;;;5.00;99.90;;;;;;5071741;28;20361;-73
2023/03/16 09:01:53;;;;;;;7.27;3.93;;;5.10;99.90;;;;;;5075032;28;20029;-74
2023/03/16 09:04:20;;;;;;;6.60;3.60;;;5.10;99.90;;;;;;5058792;28;20044;-73
2023/03/16 09:06:46;;;;;;;5.43;3.40;;;5.30;99.90;;;;;;5058626;28;20111;-73
2023/03/16 09:09:12;;;;;;;7.30;3.67;;;5.30;99.90;;;;;;5069940;28;20038;-74
2023/03/16 09:11:38;;;;;;;5.27;3.13;;;5.40;99.90;;;;;;5078445;28;20024;-73
2023/03/16 09:14:03;;;;;;;5.00;2.97;;;5.50;99.90;;;;;;5060698;28;20017;-74
2023/03/16 09:16:29;;;;;;;5.27;2.83;;;5.60;99.90;;;;;;5073218;28;20020;-73
2023/03/16 09:18:55;;;;;;;6.10;3.07;;;5.60;99.90;;;;;;5059826;28;20020;-74
2023/03/16 09:21:21;;;;;;;4.27;2.73;;;5.70;99.90;;;;;;5070143;28;20024;-74
2023/03/16 09:23:47;;;;;;;4.33;2.73;;;5.70;99.90;;;;;;5079579;28;20024;-73
2023/03/16 09:26:14;;;;;;;5.00;2.57;;;5.80;99.90;;;;;;5073905;28;20055;-73
2023/03/16 09:28:40;;;;;;;7.90;2.90;;;5.90;99.90;;;;;;5081484;28;20274;-74
2023/03/16 09:31:07;;;;;;;3.53;2.60;;;6.00;99.90;;;;;;5073943;28;20104;-73
2023/03/16 09:33:34;;;;;;;5.20;2.77;;;6.00;99.90;;;;;;5071621;28;20099;-77
2023/03/16 09:36:00;;;;;;;9.90;3.07;;;6.10;99.90;;;;;;5069661;28;20450;-73
2023/03/16 09:38:28;;;;;;;4.93;2.80;;;6.10;99.90;;;;;;5070781;28;20021;-73
2023/03/16 09:41:17;;;;;;;7.10;3.07;;;6.20;99.90;;;;;;5069363;28;20036;-73
2023/03/16 09:44:03;;;;;;;5.17;2.60;;;6.30;99.90;;;;;;5069133;28;20097;-73
2023/03/16 09:46:41;;;;;;;10.03;2.80;;;6.40;99.90;;;;;;5076421;28;20019;-72
2023/03/16 09:49:10;;;;;;;5.50;3.00;;;6.40;99.90;;;;;;5072065;28;20065;-74
2023/03/16 09:51:51;;;;;;;6.70;2.87;;;6.30;99.90;;;;;;5081839;28;20024;-75
2023/03/16 09:54:38;;;;;;;5.80;2.67;;;6.50;99.90;;;;;;5074657;28;20021;-74
2023/03/16 09:57:04;;;;;;;4.37;2.60;;;6.50;99.90;;;;;;5074213;28;20020;-74
2023/03/16 09:59:30;;;;;;;6.20;2.60;;;6.60;99.90;;;;;;5061800;28;20021;-73
2023/03/16 10:02:03;;;;;;;4.47;2.53;;;6.60;99.90;;;;;;5078231;28;20039;-74
2023/03/16 10:04:39;;;;;;;3.53;2.63;;;6.50;99.90;;;;;;5081749;28;20016;-73
2023/03/16 10:07:24;;;;;;;4.73;2.90;;;6.50;99.90;;;;;;5069548;28;20039;-74
2023/03/16 10:10:13;;;;;;;3.33;2.47;;;6.60;99.90;;;;;;5083286;28;20108;-74
2023/03/16 10:12:44;;;;;;;5.90;2.57;;;6.70;99.90;;;;;;5033755;28;20042;-73
2023/03/16 10:15:12;;;;;;;6.43;2.90;;;6.80;99.90;;;;;;5060148;28;20420;-74
2023/03/16 10:17:50;;;;;;;4.67;2.90;;;6.90;99.90;;;;;;5088298;28;20050;-73
2023/03/16 10:20:27;;;;;;;4.23;2.30;;;6.90;99.90;;;;;;5077624;28;20036;-73
2023/03/16 10:22:54;;;;;;;3.10;2.10;;;7.00;99.90;;;;;;5081694;28;20728;-78
2023/03/16 10:25:19;;;;;;;5.80;2.30;;;7.00;99.90;;;;;;5065214;28;20052;-71
2023/03/16 10:27:46;;;;;;;4.13;2.20;;;7.00;99.90;;;;;;5077948;28;20047;-77
2023/03/16 10:30:27;;;;;;;5.80;2.30;;;7.00;99.90;;;;;;5084242;28;20024;-71
2023/03/16 10:32:54;;;;;;;3.90;2.33;;;7.10;99.90;;;;;;5067508;28;20032;-73
2023/03/16 10:35:39;;;;;;;4.73;2.23;;;7.10;99.90;;;;;;5082021;28;20036;-74
2023/03/16 10:38:08;;;;;;;3.07;2.30;;;7.30;99.90;;;;;;5072217;28;20044;-73
2023/03/16 10:40:37;;;;;;;6.97;3.00;;;7.30;99.90;;;;;;5063904;28;20099;-75
2023/03/16 10:43:11;;;;;;;7.57;2.93;;;7.40;99.90;;;;;;5067463;28;20103;-84
2023/03/16 10:45:37;;;;;;;5.27;3.40;;;7.40;99.90;;;;;;5071384;28;20044;-73
2023/03/16 10:48:07;;;;;;;4.87;2.93;;;7.50;99.90;;;;;;5076768;28;20073;-83
2023/03/16 10:50:33;;;;;;;3.97;2.27;;;7.60;99.90;;;;;;5086380;28;20027;-77
2023/03/16 10:53:00;;;;;;;5.03;2.10;;;7.70;99.90;;;;;;5079297;28;20020;-73
2023/03/16 10:55:31;;;;;;;5.53;2.30;;;7.90;99.90;;;;;;5075103;28;20116;-79
2023/03/16 10:57:57;;;;;;;5.50;2.03;;;7.90;99.90;;;;;;5084851;28;20023;-74
2023/03/16 11:00:35;;;;;;;1.93;1.60;;;8.10;99.90;;;;;;5092365;28;20058;-74
2023/03/16 11:03:01;;;;;;;6.35;1.90;;;8.40;99.90;;;;;;5081525;28;20032;-83
2023/03/16 11:05:28;;;;;;;4.93;2.30;;;8.50;99.90;;;;;;5079155;28;20023;-74
2023/03/16 11:08:08;;;;;;;4.07;1.40;;;8.80;99.90;;;;;;5073188;28;20024;-73
2023/03/16 11:10:36;;;;;;;7.30;1.20;;;9.20;99.90;;;;;;5064163;28;20110;-75
2023/03/16 11:13:16;;;;;;;2.92;1.33;;;9.50;99.90;;;;;;5079955;28;20374;-79
2023/03/16 11:15:56;;;;;;;1.40;0.90;;;9.60;99.90;;;;;;5072810;28;20483;-74
2023/03/16 11:18:47;;;;;;;2.88;1.48;;;9.90;99.90;;;;;;5080476;28;20031;-74
2023/03/16 11:21:28;;;;;;;2.95;1.20;;;10.10;99.90;;;;;;5087329;28;20103;-74
2023/03/16 11:23:56;;;;;;;2.72;1.08;;;10.10;99.90;;;;;;5077091;28;20021;-73
2023/03/16 11:26:32;;;;;;;2.05;1.10;;;10.10;99.90;;;;;;5088421;28;20024;-74
2023/03/16 11:29:23;;;;;;;3.53;1.25;;;10.30;99.90;;;;;;5081558;28;20024;-74
2023/03/16 11:32:09;;;;;;;2.55;1.20;;;10.50;99.90;;;;;;5092733;28;20020;-73
2023/03/16 11:34:35;;;;;;;1.77;1.25;;;10.60;99.90;;;;;;5084891;28;20020;-74
2023/03/16 11:37:28;;;;;;;1.52;1.08;;;10.70;99.90;;;;;;5074581;28;20111;-81
2023/03/16 11:40:09;;;;;;;2.85;0.98;;;10.90;99.90;;;;;;5072368;28;20048;-74
2023/03/16 11:43:02;;;;;;;5.50;3.05;;;11.00;99.90;;;;;;5077613;28;20055;-75
2023/03/16 11:45:42;;;;;;;2.72;1.98;;;10.90;99.90;;;;;;5063466;28;20024;-76
2023/03/16 11:48:13;;;;;;;2.47;1.00;;;11.00;99.90;;;;;;5081764;28;20041;-74
2023/03/16 11:50:46;;;;;;;1.55;0.82;;;11.10;99.90;;;;;;5092492;28;20107;-74
2023/03/16 11:53:37;;;;;;;1.20;0.73;;;11.20;99.90;;;;;;5080834;28;20358;-75
2023/03/16 11:56:18;;;;;;;1.10;0.57;;;11.20;99.90;;;;;;5071823;28;20020;-79
2023/03/16 11:59:00;;;;;;;1.10;0.63;;;11.20;99.90;;;;;;5077255;28;20016;-74
2023/03/16 12:02:01;;;;;;;2.13;0.80;;;11.30;98.90;;;;;;5085269;28;20723;-74
2023/03/16 12:04:43;;;;;;;1.48;0.82;;;11.40;99.90;;;;;;5060848;28;20018;-74
2023/03/16 12:07:15;;;;;;;1.60;0.77;;;11.30;99.90;;;;;;5081827;28;20480;-73
2023/03/16 12:09:56;;;;;;;0.98;0.73;;;11.30;99.90;;;;;;5071254;28;20031;-73
2023/03/16 12:13:03;;;;;;;1.73;1.00;;;11.10;99.90;;;;;;5075700;28;20024;-73
2023/03/16 12:15:29;;;;;;;1.05;0.60;;;11.20;99.90;;;;;;5029120;28;20101;-73
2023/03/16 12:18:05;;;;;;;0.75;0.70;;;11.20;99.90;;;;;;5057490;28;20450;-84
2023/03/16 12:20:57;;;;;;;1.88;0.57;;;11.30;99.90;;;;;;5056951;28;20028;-73
2023/03/16 12:23:44;;;;;;;1.85;1.10;;;11.40;99.10;;;;;;5067210;28;20047;-72
2023/03/16 12:26:11;;;;;;;2.33;0.70;;;11.60;97.60;;;;;;5055310;28;20106;-75
2023/03/16 12:28:39;;;;;;;2.92;0.85;;;11.80;98.50;;;;;;5087973;28;20412;-73
2023/03/16 12:31:18;;;;;;;1.45;0.40;;;12.00;96.50;;;;;;5074063;28;20032;-76
2023/03/16 12:34:02;;;;;;;1.17;0.77;;;12.10;95.20;;;;;;5091690;28;20023;-73
2023/03/16 12:36:59;;;;;;;2.17;0.40;;;12.30;94.10;;;;;;5076107;28;20044;-74
2023/03/16 12:39:37;;;;;;;0.60;0.50;;;12.50;93.80;;;;;;5079780;28;20020;-75
2023/03/16 12:42:21;;;;;;;2.33;0.77;;;12.90;94.50;;;;;;5054644;28;20143;-79
2023/03/16 12:45:01;;;;;;;1.05;0.57;;;13.10;92.50;;;;;;5064188;28;20452;-75
2023/03/16 12:47:48;;;;;;;1.23;0.60;;;13.30;92.00;;;;;;5081091;28;20056;-74
2023/03/16 12:50:17;;;;;;;0.70;0.70;;;13.60;92.40;;;;;;5072140;28;20024;-73
2023/03/16 12:52:48;;;;;;;2.33;0.60;;;13.80;86.10;;;;;;5072239;28;20097;-74
2023/03/16 12:55:26;;;;;;;0.70;0.53;;;14.00;87.60;;;;;;5070331;28;20028;-74
2023/03/16 12:57:59;;;;;;;1.80;0.57;;;14.20;84.10;;;;;;5073445;28;20261;-75
2023/03/16 13:00:34;;;;;;;0.98;0.57;;;14.50;82.50;;;;;;5057262;28;20024;-76
2023/03/16 13:03:01;;;;;;;1.27;0.52;;;14.70;79.40;;;;;;5059556;28;20341;-74
2023/03/16 13:05:35;;;;;;;1.15;0.60;;;15.00;77.00;;;;;;5072664;28;20350;-73